sensor_id;sensor_type;location;lat;lon;timestamp;pressure;altitude;pressure_sealevel;temperature;humidity
69622;BME280;56841;55.964;37.674;2023-03-20T00:00:47;100038.84;;;-1.17;72.04
69622;BME280;56841;55.964;37.674;2023-03-20T00:03:14;100029.50;;;-1.20;72.18
69622;BME280;56841;55.964;37.674;2023-03-20T00:05:40;100037.28;;;-1.20;71.76
69622;BME280;56841;55.964;37.674;2023-03-20T00:08:06;100036.09;;;-1.14;70.94
69622;BME280;56841;55.964;37.674;2023-03-20T00:10:39;100032.84;;;-1.17;71.11
69622;BME280;56841;55.964;37.674;2023-03-20T00:13:07;100033.00;;;-1.21;70.83
69622;BME280;56841;55.964;37.674;2023-03-20T00:15:37;100037.22;;;-1.51;71.76
69622;BME280;56841;55.964;37.674;2023-03-20T00:18:16;100039.38;;;-1.59;71.31
69622;BME280;56841;55.964;37.674;2023-03-20T00:20:45;100034.72;;;-1.53;71.60
69622;BME280;56841;55.964;37.674;2023-03-20T00:23:12;100029.38;;;-1.50;71.72
69622;BME280;56841;55.964;37.674;2023-03-20T00:25:40;100036.81;;;-1.59;72.11
69622;BME280;56841;55.964;37.674;2023-03-20T00:28:28;100037.31;;;-1.53;71.98
69622;BME280;56841;55.964;37.674;2023-03-20T00:30:55;100034.25;;;-1.44;71.46
69622;BME280;56841;55.964;37.674;2023-03-20T00:33:20;100028.88;;;-1.40;71.01
69622;BME280;56841;55.964;37.674;2023-03-20T00:35:47;100031.41;;;-1.39;71.34
69622;BME280;56841;55.964;37.674;2023-03-20T00:38:13;100027.06;;;-1.38;70.98
69622;BME280;56841;55.964;37.674;2023-03-20T00:40:39;100022.88;;;-1.41;71.32
69622;BME280;56841;55.964;37.674;2023-03-20T00:43:04;100018.34;;;-1.37;70.90
69622;BME280;56841;55.964;37.674;2023-03-20T00:45:31;100017.53;;;-1.54;70.62
69622;BME280;56841;55.964;37.674;2023-03-20T00:47:58;100022.25;;;-1.62;71.67
69622;BME280;56841;55.964;37.674;2023-03-20T00:50:27;100017.69;;;-1.57;71.65
69622;BME280;56841;55.964;37.674;2023-03-20T00:52:54;100011.72;;;-1.59;71.76
69622;BME280;56841;55.964;37.674;2023-03-20T00:55:24;100013.97;;;-1.69;73.09
69622;BME280;56841;55.964;37.674;2023-03-20T00:57:57;100020.59;;;-1.63;72.48
69622;BME280;56841;55.964;37.674;2023-03-20T01:00:41;100014.16;;;-1.56;71.79
69622;BME280;56841;55.964;37.674;2023-03-20T01:03:15;100020.13;;;-1.54;71.46
69622;BME280;56841;55.964;37.674;2023-03-20T01:05:42;100018.84;;;-1.62;71.81
69622;BME280;56841;55.964;37.674;2023-03-20T01:08:20;100010.13;;;-1.61;71.58
69622;BME280;56841;55.964;37.674;2023-03-20T01:10:52;100017.84;;;-1.60;72.04
69622;BME280;56841;55.964;37.674;2023-03-20T01:13:26;100011.69;;;-1.75;72.05
69622;BME280;56841;55.964;37.674;2023-03-20T01:15:54;100007.38;;;-1.74;72.36
69622;BME280;56841;55.964;37.674;2023-03-20T01:18:22;100009.78;;;-1.71;72.22
69622;BME280;56841;55.964;37.674;2023-03-20T01:20:48;100008.88;;;-1.70;72.81
69622;BME280;56841;55.964;37.674;2023-03-20T01:23:15;100002.69;;;-1.68;72.54
69622;BME280;56841;55.964;37.674;2023-03-20T01:25:41;100001.78;;;-1.67;72.24
69622;BME280;56841;55.964;37.674;2023-03-20T01:28:25;100007.97;;;-1.69;72.13
69622;BME280;56841;55.964;37.674;2023-03-20T01:30:52;99996.09;;;-1.73;73.27
69622;BME280;56841;55.964;37.674;2023-03-20T01:33:20;99996.94;;;-1.73;72.84
69622;BME280;56841;55.964;37.674;2023-03-20T01:35:51;100000.03;;;-1.66;72.79
69622;BME280;56841;55.964;37.674;2023-03-20T01:38:23;100002.38;;;-1.61;71.79
69622;BME280;56841;55.964;37.674;2023-03-20T01:43:27;99997.28;;;-1.63;72.58
69622;BME280;56841;55.964;37.674;2023-03-20T01:45:58;99992.84;;;-1.61;71.59
69622;BME280;56841;55.964;37.674;2023-03-20T01:48:54;99986.84;;;-1.61;71.45
69622;BME280;56841;55.964;37.674;2023-03-20T01:51:24;99984.19;;;-1.60;70.64
69622;BME280;56841;55.964;37.674;2023-03-20T01:54:00;99978.06;;;-1.59;70.67
69622;BME280;56841;55.964;37.674;2023-03-20T01:56:29;99974.47;;;-1.72;71.11
69622;BME280;56841;55.964;37.674;2023-03-20T01:59:05;99978.44;;;-1.82;71.73
69622;BME280;56841;55.964;37.674;2023-03-20T02:01:35;99972.69;;;-1.87;72.40
69622;BME280;56841;55.964;37.674;2023-03-20T02:04:02;99973.34;;;-1.84;72.59
69622;BME280;56841;55.964;37.674;2023-03-20T02:06:43;99968.44;;;-1.73;72.64
69622;BME280;56841;55.964;37.674;2023-03-20T02:09:14;99970.63;;;-1.65;72.61
69622;BME280;56841;55.964;37.674;2023-03-20T02:11:43;99973.56;;;-1.55;71.48
69622;BME280;56841;55.964;37.674;2023-03-20T02:14:10;99969.16;;;-1.53;71.90
69622;BME280;56841;55.964;37.674;2023-03-20T02:16:49;99972.56;;;-1.53;72.08
69622;BME280;56841;55.964;37.674;2023-03-20T02:19:28;99966.47;;;-1.52;71.49
69622;BME280;56841;55.964;37.674;2023-03-20T02:27:21;99966.03;;;-1.44;71.22
69622;BME280;56841;55.964;37.674;2023-03-20T02:43:42;99943.66;;;-1.29;70.70
69622;BME280;56841;55.964;37.674;2023-03-20T02:49:50;99949.50;;;-1.26;70.28
69622;BME280;56841;55.964;37.674;2023-03-20T02:52:32;99951.19;;;-1.25;70.76
69622;BME280;56841;55.964;37.674;2023-03-20T03:00:25;99937.63;;;-0.98;68.62
69622;BME280;56841;55.964;37.674;2023-03-20T03:03:13;99931.00;;;-1.04;68.39
69622;BME280;56841;55.964;37.674;2023-03-20T03:05:56;99935.16;;;-0.85;67.83
69622;BME280;56841;55.964;37.674;2023-03-20T03:08:27;99931.66;;;-0.84;67.52
69622;BME280;56841;55.964;37.674;2023-03-20T03:10:57;99929.25;;;-0.73;67.30
69622;BME280;56841;55.964;37.674;2023-03-20T03:13:28;99930.22;;;-0.60;67.19
69622;BME280;56841;55.964;37.674;2023-03-20T03:15:59;99924.38;;;-0.63;66.99
69622;BME280;56841;55.964;37.674;2023-03-20T03:18:29;99922.00;;;-0.52;66.78
69622;BME280;56841;55.964;37.674;2023-03-20T03:20:59;99917.94;;;-0.42;66.34
69622;BME280;56841;55.964;37.674;2023-03-20T03:23:39;99917.88;;;-0.40;66.13
69622;BME280;56841;55.964;37.674;2023-03-20T03:26:09;99911.72;;;-0.54;66.78
69622;BME280;56841;55.964;37.674;2023-03-20T03:28:43;99912.78;;;-0.72;67.79
69622;BME280;56841;55.964;37.674;2023-03-20T03:31:12;99928.44;;;-0.74;68.20
69622;BME280;56841;55.964;37.674;2023-03-20T03:33:42;99920.00;;;-0.77;69.00
69622;BME280;56841;55.964;37.674;2023-03-20T03:36:12;99917.75;;;-0.83;69.03
69622;BME280;56841;55.964;37.674;2023-03-20T03:41:34;99917.25;;;-0.90;69.19
69622;BME280;56841;55.964;37.674;2023-03-20T03:44:15;99913.94;;;-0.92;69.43
69622;BME280;56841;55.964;37.674;2023-03-20T03:46:56;99911.75;;;-1.00;69.44
69622;BME280;56841;55.964;37.674;2023-03-20T03:49:26;99910.09;;;-1.01;69.72
69622;BME280;56841;55.964;37.674;2023-03-20T03:52:00;99921.41;;;-1.02;70.03
69622;BME280;56841;55.964;37.674;2023-03-20T03:54:44;99910.38;;;-1.05;69.82
69622;BME280;56841;55.964;37.674;2023-03-20T03:57:36;99903.66;;;-0.93;69.92
69622;BME280;56841;55.964;37.674;2023-03-20T04:00:10;99901.06;;;-0.93;69.68
69622;BME280;56841;55.964;37.674;2023-03-20T04:02:42;99899.13;;;-0.90;69.50
69622;BME280;56841;55.964;37.674;2023-03-20T04:05:10;99896.53;;;-0.90;69.96
69622;BME280;56841;55.964;37.674;2023-03-20T04:07:38;99899.38;;;-0.94;70.19
69622;BME280;56841;55.964;37.674;2023-03-20T04:10:04;99898.22;;;-0.89;69.91
69622;BME280;56841;55.964;37.674;2023-03-20T04:12:41;99902.13;;;-0.82;69.67
69622;BME280;56841;55.964;37.674;2023-03-20T04:15:12;99901.56;;;-0.73;69.11
69622;BME280;56841;55.964;37.674;2023-03-20T04:17:38;99903.41;;;-0.89;69.91
69622;BME280;56841;55.964;37.674;2023-03-20T04:20:06;99896.84;;;-0.80;69.51
69622;BME280;56841;55.964;37.674;2023-03-20T04:22:32;99897.81;;;-0.67;69.21
69622;BME280;56841;55.964;37.674;2023-03-20T04:25:05;99891.81;;;-0.53;68.88
69622;BME280;56841;55.964;37.674;2023-03-20T04:27:31;99896.88;;;-0.66;68.95
69622;BME280;56841;55.964;37.674;2023-03-20T04:29:57;99886.59;;;-0.67;68.72
69622;BME280;56841;55.964;37.674;2023-03-20T04:32:42;99886.13;;;-0.74;68.85
69622;BME280;56841;55.964;37.674;2023-03-20T04:35:15;99891.50;;;-0.63;68.76
69622;BME280;56841;55.964;37.674;2023-03-20T04:37:54;99885.31;;;-0.60;68.64
69622;BME280;56841;55.964;37.674;2023-03-20T04:40:20;99880.25;;;-0.47;68.25
69622;BME280;56841;55.964;37.674;2023-03-20T04:42:46;99875.78;;;-0.45;68.21
69622;BME280;56841;55.964;37.674;2023-03-20T04:45:12;99879.13;;;-0.43;68.36
69622;BME280;56841;55.964;37.674;2023-03-20T04:47:38;99883.38;;;-0.42;68.14
69622;BME280;56841;55.964;37.674;2023-03-20T04:50:06;99878.47;;;-0.33;67.73
69622;BME280;56841;55.964;37.674;2023-03-20T04:52:32;99878.59;;;-0.20;67.43
69622;BME280;56841;55.964;37.674;2023-03-20T04:54:57;99887.31;;;-0.07;66.88
69622;BME280;56841;55.964;37.674;2023-03-20T04:57:23;99891.38;;;-0.03;66.29
69622;BME280;56841;55.964;37.674;2023-03-20T04:59:50;99893.50;;;0.05;66.05
69622;BME280;56841;55.964;37.674;2023-03-20T05:02:16;99893.59;;;0.18;65.79
69622;BME280;56841;55.964;37.674;2023-03-20T05:04:42;99894.22;;;0.21;64.65
69622;BME280;56841;55.964;37.674;2023-03-20T05:07:09;99891.25;;;0.28;65.13
69622;BME280;56841;55.964;37.674;2023-03-20T05:09:58;99885.09;;;0.43;64.83
69622;BME280;56841;55.964;37.674;2023-03-20T05:12:24;99883.03;;;0.48;64.07
69622;BME280;56841;55.964;37.674;2023-03-20T05:15:17;99893.47;;;0.61;63.79
69622;BME280;56841;55.964;37.674;2023-03-20T05:17:58;99893.78;;;0.56;63.38
69622;BME280;56841;55.964;37.674;2023-03-20T05:20:36;99889.56;;;0.68;63.62
69622;BME280;56841;55.964;37.674;2023-03-20T05:23:06;99889.31;;;0.85;62.30
69622;BME280;56841;55.964;37.674;2023-03-20T05:26:10;99889.34;;;0.98;61.89
69622;BME280;56841;55.964;37.674;2023-03-20T05:28:56;99886.81;;;1.24;61.83
69622;BME280;56841;55.964;37.674;2023-03-20T05:31:41;99889.09;;;1.28;62.59
69622;BME280;56841;55.964;37.674;2023-03-20T05:34:20;99888.59;;;1.23;63.15
69622;BME280;56841;55.964;37.674;2023-03-20T05:37:06;99890.56;;;1.32;63.82
69622;BME280;56841;55.964;37.674;2023-03-20T05:39:48;99886.19;;;1.33;61.11
69622;BME280;56841;55.964;37.674;2023-03-20T05:42:39;99890.78;;;1.42;58.35
69622;BME280;56841;55.964;37.674;2023-03-20T05:45:38;99882.16;;;1.54;58.03
69622;BME280;56841;55.964;37.674;2023-03-20T05:48:04;99884.97;;;1.51;56.61
69622;BME280;56841;55.964;37.674;2023-03-20T05:50:48;99878.53;;;1.44;56.17
69622;BME280;56841;55.964;37.674;2023-03-20T05:53:22;99894.22;;;1.42;55.45
69622;BME280;56841;55.964;37.674;2023-03-20T05:56:05;99892.44;;;1.43;54.22
69622;BME280;56841;55.964;37.674;2023-03-20T05:59:04;99888.91;;;1.57;54.31
69622;BME280;56841;55.964;37.674;2023-03-20T06:01:43;99892.25;;;1.59;53.96
69622;BME280;56841;55.964;37.674;2023-03-20T06:04:23;99896.94;;;1.66;53.73
69622;BME280;56841;55.964;37.674;2023-03-20T06:07:09;99890.81;;;1.68;53.39
69622;BME280;56841;55.964;37.674;2023-03-20T06:09:37;99902.16;;;1.79;53.65
69622;BME280;56841;55.964;37.674;2023-03-20T06:12:08;99890.78;;;1.80;53.33
69622;BME280;56841;55.964;37.674;2023-03-20T06:14:34;99892.56;;;1.93;52.58
69622;BME280;56841;55.964;37.674;2023-03-20T06:17:03;99892.66;;;1.91;52.20
69622;BME280;56841;55.964;37.674;2023-03-20T06:19:29;99896.81;;;1.94;52.10
69622;BME280;56841;55.964;37.674;2023-03-20T06:21:55;99889.09;;;2.18;52.24
69622;BME280;56841;55.964;37.674;2023-03-20T06:24:21;99891.66;;;2.30;51.36
69622;BME280;56841;55.964;37.674;2023-03-20T06:26:47;99887.50;;;2.28;50.41
69622;BME280;56841;55.964;37.674;2023-03-20T06:29:13;99885.94;;;2.25;49.55
69622;BME280;56841;55.964;37.674;2023-03-20T06:31:39;99878.44;;;2.33;49.34
69622;BME280;56841;55.964;37.674;2023-03-20T06:34:08;99881.72;;;2.35;49.05
69622;BME280;56841;55.964;37.674;2023-03-20T06:36:40;99882.47;;;2.37;48.66
69622;BME280;56841;55.964;37.674;2023-03-20T06:39:13;99881.81;;;2.47;48.75
69622;BME280;56841;55.964;37.674;2023-03-20T06:41:39;99880.88;;;2.48;48.32
69622;BME280;56841;55.964;37.674;2023-03-20T06:44:07;99875.66;;;2.48;48.27
69622;BME280;56841;55.964;37.674;2023-03-20T06:46:53;99872.28;;;2.58;48.78
69622;BME280;56841;55.964;37.674;2023-03-20T06:49:20;99875.88;;;2.69;47.43
69622;BME280;56841;55.964;37.674;2023-03-20T06:51:46;99871.81;;;2.77;47.23
69622;BME280;56841;55.964;37.674;2023-03-20T06:54:17;99867.19;;;2.81;46.61
69622;BME280;56841;55.964;37.674;2023-03-20T06:56:43;99866.97;;;2.84;46.08
69622;BME280;56841;55.964;37.674;2023-03-20T06:59:08;99866.19;;;2.95;45.49
69622;BME280;56841;55.964;37.674;2023-03-20T07:01:35;99863.34;;;2.98;45.58
69622;BME280;56841;55.964;37.674;2023-03-20T07:04:01;99863.13;;;3.01;45.49
69622;BME280;56841;55.964;37.674;2023-03-20T07:06:35;99854.38;;;3.13;45.90
69622;BME280;56841;55.964;37.674;2023-03-20T07:09:01;99854.03;;;3.18;45.00
69622;BME280;56841;55.964;37.674;2023-03-20T07:11:27;99855.44;;;3.11;45.31
69622;BME280;56841;55.964;37.674;2023-03-20T07:13:54;99855.09;;;3.15;44.14
69622;BME280;56841;55.964;37.674;2023-03-20T07:16:31;99852.28;;;3.29;44.54
69622;BME280;56841;55.964;37.674;2023-03-20T07:18:57;99852.66;;;3.36;43.84
69622;BME280;56841;55.964;37.674;2023-03-20T07:21:24;99848.41;;;3.46;43.57
69622;BME280;56841;55.964;37.674;2023-03-20T07:23:50;99853.97;;;3.42;42.99
69622;BME280;56841;55.964;37.674;2023-03-20T07:26:16;99850.88;;;3.48;43.16
69622;BME280;56841;55.964;37.674;2023-03-20T07:28:42;99850.66;;;3.51;42.23
69622;BME280;56841;55.964;37.674;2023-03-20T07:31:20;99856.00;;;3.61;41.68
69622;BME280;56841;55.964;37.674;2023-03-20T07:33:49;99854.72;;;3.66;41.37
69622;BME280;56841;55.964;37.674;2023-03-20T07:36:16;99857.34;;;3.77;41.51
69622;BME280;56841;55.964;37.674;2023-03-20T07:38:42;99847.25;;;3.84;41.17
69622;BME280;56841;55.964;37.674;2023-03-20T07:41:09;99840.97;;;3.87;40.45
69622;BME280;56841;55.964;37.674;2023-03-20T07:43:39;99835.25;;;4.04;40.36
69622;BME280;56841;55.964;37.674;2023-03-20T07:46:23;99838.78;;;4.14;40.45
69622;BME280;56841;55.964;37.674;2023-03-20T07:48:49;99830.72;;;4.17;40.00
69622;BME280;56841;55.964;37.674;2023-03-20T07:51:15;99820.34;;;4.27;40.07
69622;BME280;56841;55.964;37.674;2023-03-20T07:53:41;99826.97;;;4.42;39.37
69622;BME280;56841;55.964;37.674;2023-03-20T07:56:09;99830.13;;;4.57;39.86
69622;BME280;56841;55.964;37.674;2023-03-20T07:58:35;99826.31;;;4.61;39.13
69622;BME280;56841;55.964;37.674;2023-03-20T08:01:01;99817.88;;;4.58;37.99
69622;BME280;56841;55.964;37.674;2023-03-20T08:03:28;99819.09;;;4.54;37.89
69622;BME280;56841;55.964;37.674;2023-03-20T08:05:54;99821.16;;;4.71;37.86
69622;BME280;56841;55.964;37.674;2023-03-20T08:08:20;99822.75;;;4.62;37.60
69622;BME280;56841;55.964;37.674;2023-03-20T08:10:46;99816.16;;;4.79;37.33
69622;BME280;56841;55.964;37.674;2023-03-20T08:13:12;99824.06;;;4.57;37.25
69622;BME280;56841;55.964;37.674;2023-03-20T08:15:38;99819.50;;;4.70;37.22
69622;BME280;56841;55.964;37.674;2023-03-20T08:18:04;99814.28;;;4.91;38.03
69622;BME280;56841;55.964;37.674;2023-03-20T08:20:30;99807.53;;;5.09;36.91
69622;BME280;56841;55.964;37.674;2023-03-20T08:22:56;99803.84;;;5.12;36.93
69622;BME280;56841;55.964;37.674;2023-03-20T08:25:22;99806.34;;;5.13;36.59
69622;BME280;56841;55.964;37.674;2023-03-20T08:27:50;99803.38;;;5.28;37.52
69622;BME280;56841;55.964;37.674;2023-03-20T08:30:16;99794.16;;;5.54;37.36
69622;BME280;56841;55.964;37.674;2023-03-20T08:32:42;99800.13;;;5.66;38.17
69622;BME280;56841;55.964;37.674;2023-03-20T08:35:08;99791.59;;;5.74;36.66
69622;BME280;56841;55.964;37.674;2023-03-20T08:37:36;99792.06;;;5.79;37.07
69622;BME280;56841;55.964;37.674;2023-03-20T08:40:04;99797.06;;;5.91;36.82
69622;BME280;56841;55.964;37.674;2023-03-20T08:42:30;99794.34;;;5.93;36.45
69622;BME280;56841;55.964;37.674;2023-03-20T08:44:56;99799.38;;;5.85;36.75
69622;BME280;56841;55.964;37.674;2023-03-20T08:47:22;99788.69;;;5.67;36.06
69622;BME280;56841;55.964;37.674;2023-03-20T08:49:48;99786.22;;;5.65;36.96
69622;BME280;56841;55.964;37.674;2023-03-20T08:52:14;99785.13;;;5.68;36.70
69622;BME280;56841;55.964;37.674;2023-03-20T08:54:40;99784.97;;;5.69;36.59
69622;BME280;56841;55.964;37.674;2023-03-20T08:57:05;99784.25;;;5.67;37.08
69622;BME280;56841;55.964;37.674;2023-03-20T08:59:31;99776.41;;;5.58;37.25
69622;BME280;56841;55.964;37.674;2023-03-20T09:01:57;99781.50;;;5.59;37.01
69622;BME280;56841;55.964;37.674;2023-03-20T09:04:23;99776.25;;;5.59;37.08
69622;BME280;56841;55.964;37.674;2023-03-20T09:06:49;99776.59;;;5.76;37.03
69622;BME280;56841;55.964;37.674;2023-03-20T09:09:16;99774.09;;;5.74;36.88
69622;BME280;56841;55.964;37.674;2023-03-20T09:11:44;99768.03;;;5.74;36.66
69622;BME280;56841;55.964;37.674;2023-03-20T09:14:10;99772.63;;;5.81;36.62
69622;BME280;56841;55.964;37.674;2023-03-20T09:16:36;99774.78;;;5.76;36.78
69622;BME280;56841;55.964;37.674;2023-03-20T09:19:02;99770.88;;;6.01;36.92
69622;BME280;56841;55.964;37.674;2023-03-20T09:21:28;99764.25;;;5.97;36.39
69622;BME280;56841;55.964;37.674;2023-03-20T09:23:54;99772.16;;;6.07;36.55
69622;BME280;56841;55.964;37.674;2023-03-20T09:26:20;99767.31;;;6.02;35.10
69622;BME280;56841;55.964;37.674;2023-03-20T09:28:46;99761.47;;;5.89;35.23
69622;BME280;56841;55.964;37.674;2023-03-20T09:31:12;99756.91;;;5.91;34.98
69622;BME280;56841;55.964;37.674;2023-03-20T09:33:38;99758.34;;;5.95;34.33
69622;BME280;56841;55.964;37.674;2023-03-20T09:36:04;99759.19;;;6.05;34.95
69622;BME280;56841;55.964;37.674;2023-03-20T09:38:30;99753.13;;;6.14;34.50
69622;BME280;56841;55.964;37.674;2023-03-20T09:40:58;99743.47;;;6.25;34.54
69622;BME280;56841;55.964;37.674;2023-03-20T09:48:58;99747.91;;;6.53;35.76
69622;BME280;56841;55.964;37.674;2023-03-20T09:51:43;99738.63;;;6.78;35.33
69622;BME280;56841;55.964;37.674;2023-03-20T09:54:26;99737.53;;;6.81;34.39
69622;BME280;56841;55.964;37.674;2023-03-20T09:56:54;99725.53;;;6.69;34.09
69622;BME280;56841;55.964;37.674;2023-03-20T09:59:21;99724.69;;;6.78;34.60
69622;BME280;56841;55.964;37.674;2023-03-20T10:01:52;99724.78;;;6.96;34.90
69622;BME280;56841;55.964;37.674;2023-03-20T10:04:24;99717.88;;;7.04;33.57
69622;BME280;56841;55.964;37.674;2023-03-20T10:06:51;99713.50;;;7.32;34.09
69622;BME280;56841;55.964;37.674;2023-03-20T10:09:23;99715.09;;;7.43;32.75
69622;BME280;56841;55.964;37.674;2023-03-20T10:12:22;99711.91;;;7.49;32.81
69622;BME280;56841;55.964;37.674;2023-03-20T10:15:09;99713.25;;;7.53;32.13
69622;BME280;56841;55.964;37.674;2023-03-20T10:17:45;99723.34;;;7.21;31.61
69622;BME280;56841;55.964;37.674;2023-03-20T10:21:00;99707.41;;;7.32;31.91
69622;BME280;56841;55.964;37.674;2023-03-20T10:23:25;99700.66;;;7.29;31.58
69622;BME280;56841;55.964;37.674;2023-03-20T10:25:55;99694.97;;;7.24;30.84
69622;BME280;56841;55.964;37.674;2023-03-20T10:34:03;99693.69;;;7.38;31.25
69622;BME280;56841;55.964;37.674;2023-03-20T10:39:30;99691.38;;;7.63;30.34
69622;BME280;56841;55.964;37.674;2023-03-20T10:42:02;99680.19;;;7.78;30.39
69622;BME280;56841;55.964;37.674;2023-03-20T10:44:35;99684.69;;;7.68;30.85
69622;BME280;56841;55.964;37.674;2023-03-20T10:47:05;99685.75;;;7.75;30.61
69622;BME280;56841;55.964;37.674;2023-03-20T10:50:05;99686.56;;;7.76;31.53
69622;BME280;56841;55.964;37.674;2023-03-20T10:52:35;99684.78;;;7.76;30.77
69622;BME280;56841;55.964;37.674;2023-03-20T10:55:07;99675.88;;;7.87;31.15
69622;BME280;56841;55.964;37.674;2023-03-20T10:57:39;99676.28;;;7.65;31.20
69622;BME280;56841;55.964;37.674;2023-03-20T11:00:17;99674.47;;;7.65;31.03
69622;BME280;56841;55.964;37.674;2023-03-20T11:02:44;99666.56;;;7.65;29.36
69622;BME280;56841;55.964;37.674;2023-03-20T11:05:30;99665.69;;;7.56;28.89
69622;BME280;56841;55.964;37.674;2023-03-20T11:08:13;99662.94;;;7.48;29.66
69622;BME280;56841;55.964;37.674;2023-03-20T11:10:41;99658.13;;;7.44;28.38
69622;BME280;56841;55.964;37.674;2023-03-20T11:13:35;99651.47;;;7.49;28.24
69622;BME280;56841;55.964;37.674;2023-03-20T11:16:22;99654.13;;;7.67;29.04
69622;BME280;56841;55.964;37.674;2023-03-20T11:18:50;99652.91;;;7.62;29.81
69622;BME280;56841;55.964;37.674;2023-03-20T11:21:27;99652.72;;;7.73;30.12
69622;BME280;56841;55.964;37.674;2023-03-20T11:23:54;99658.09;;;7.71;30.27
69622;BME280;56841;55.964;37.674;2023-03-20T11:26:40;99658.50;;;7.76;29.26
69622;BME280;56841;55.964;37.674;2023-03-20T11:29:28;99646.53;;;7.64;28.25
69622;BME280;56841;55.964;37.674;2023-03-20T11:34:47;99652.25;;;7.59;28.94
69622;BME280;56841;55.964;37.674;2023-03-20T11:37:27;99641.28;;;7.82;29.36
69622;BME280;56841;55.964;37.674;2023-03-20T11:39:57;99630.25;;;7.78;28.76
69622;BME280;56841;55.964;37.674;2023-03-20T11:42:27;99629.97;;;7.81;28.57
69622;BME280;56841;55.964;37.674;2023-03-20T11:45:00;99631.38;;;7.76;28.09
69622;BME280;56841;55.964;37.674;2023-03-20T11:47:29;99629.19;;;7.71;27.87
69622;BME280;56841;55.964;37.674;2023-03-20T11:50:01;99628.13;;;7.64;27.97
69622;BME280;56841;55.964;37.674;2023-03-20T11:52:34;99616.28;;;7.78;28.52
69622;BME280;56841;55.964;37.674;2023-03-20T11:55:11;99614.06;;;7.83;28.16
69622;BME280;56841;55.964;37.674;2023-03-20T11:57:49;99618.25;;;7.94;30.07
69622;BME280;56841;55.964;37.674;2023-03-20T12:00:27;99607.97;;;8.00;29.26
69622;BME280;56841;55.964;37.674;2023-03-20T12:02:54;99604.56;;;8.08;29.54
69622;BME280;56841;55.964;37.674;2023-03-20T12:05:35;99596.81;;;8.06;28.21
69622;BME280;56841;55.964;37.674;2023-03-20T12:08:22;99590.06;;;8.04;27.75
69622;BME280;56841;55.964;37.674;2023-03-20T12:11:02;99590.91;;;8.04;28.73
69622;BME280;56841;55.964;37.674;2023-03-20T12:13:34;99580.59;;;8.11;28.00
69622;BME280;56841;55.964;37.674;2023-03-20T12:16:06;99589.59;;;8.08;28.02
69622;BME280;56841;55.964;37.674;2023-03-20T12:21:19;99572.41;;;8.14;28.09
69622;BME280;56841;55.964;37.674;2023-03-20T12:24:04;99578.50;;;8.15;26.27
69622;BME280;56841;55.964;37.674;2023-03-20T12:26:41;99577.38;;;8.17;26.32
69622;BME280;56841;55.964;37.674;2023-03-20T12:31:58;99571.63;;;8.22;27.92
69622;BME280;56841;55.964;37.674;2023-03-20T12:36:54;99567.63;;;8.36;27.80
69622;BME280;56841;55.964;37.674;2023-03-20T12:39:31;99567.34;;;8.39;28.01
69622;BME280;56841;55.964;37.674;2023-03-20T12:44:37;99560.44;;;8.20;28.25
69622;BME280;56841;55.964;37.674;2023-03-20T12:50:09;99550.59;;;8.22;28.96
69622;BME280;56841;55.964;37.674;2023-03-20T12:58:29;99535.50;;;9.43;28.32
69622;BME280;56841;55.964;37.674;2023-03-20T13:04:22;99527.94;;;11.48;27.07
69622;BME280;56841;55.964;37.674;2023-03-20T13:07:00;99520.88;;;12.09;26.47
69622;BME280;56841;55.964;37.674;2023-03-20T13:09:43;99517.44;;;12.23;25.40
69622;BME280;56841;55.964;37.674;2023-03-20T13:20:29;99514.34;;;12.94;25.58
69622;BME280;56841;55.964;37.674;2023-03-20T13:23:21;99511.13;;;13.13;24.66
69622;BME280;56841;55.964;37.674;2023-03-20T13:34:04;99515.34;;;12.93;25.28
69622;BME280;56841;55.964;37.674;2023-03-20T13:39:33;99497.91;;;12.84;25.92
69622;BME280;56841;55.964;37.674;2023-03-20T13:42:01;99497.53;;;12.87;25.94
69622;BME280;56841;55.964;37.674;2023-03-20T13:44:29;99497.47;;;12.80;26.07
69622;BME280;56841;55.964;37.674;2023-03-20T13:46:59;99493.25;;;12.86;26.28
69622;BME280;56841;55.964;37.674;2023-03-20T13:52:18;99486.81;;;12.95;27.02
69622;BME280;56841;55.964;37.674;2023-03-20T14:00:27;99485.53;;;11.64;28.24
69622;BME280;56841;55.964;37.674;2023-03-20T14:03:30;99484.00;;;11.70;28.15
69622;BME280;56841;55.964;37.674;2023-03-20T14:05:57;99476.81;;;11.78;28.75
69622;BME280;56841;55.964;37.674;2023-03-20T14:10:55;99464.56;;;11.39;30.04
69622;BME280;56841;55.964;37.674;2023-03-20T14:13:30;99455.06;;;11.68;30.19
69622;BME280;56841;55.964;37.674;2023-03-20T14:16:00;99457.44;;;11.86;29.75
69622;BME280;56841;55.964;37.674;2023-03-20T14:18:29;99456.13;;;11.82;30.19
69622;BME280;56841;55.964;37.674;2023-03-20T14:20:59;99453.09;;;11.93;29.72
69622;BME280;56841;55.964;37.674;2023-03-20T14:23:47;99450.72;;;11.75;30.22
69622;BME280;56841;55.964;37.674;2023-03-20T14:26:41;99445.00;;;11.03;30.94
69622;BME280;56841;55.964;37.674;2023-03-20T14:31:37;99453.25;;;10.29;32.73
69622;BME280;56841;55.964;37.674;2023-03-20T14:37:01;99456.91;;;9.87;33.46
69622;BME280;56841;55.964;37.674;2023-03-20T14:41:59;99448.03;;;9.80;33.22
69622;BME280;56841;55.964;37.674;2023-03-20T14:55:29;99448.38;;;9.20;35.44
69622;BME280;56841;55.964;37.674;2023-03-20T14:57:57;99449.03;;;9.22;35.50
69622;BME280;56841;55.964;37.674;2023-03-20T15:00:28;99447.38;;;9.21;36.68
69622;BME280;56841;55.964;37.674;2023-03-20T15:03:08;99445.38;;;9.07;36.99
69622;BME280;56841;55.964;37.674;2023-03-20T15:05:37;99447.66;;;9.01;36.99
69622;BME280;56841;55.964;37.674;2023-03-20T15:11:04;99445.06;;;9.10;37.64
69622;BME280;56841;55.964;37.674;2023-03-20T15:13:34;99440.59;;;9.02;37.05
69622;BME280;56841;55.964;37.674;2023-03-20T15:18:37;99436.00;;;8.96;37.46
69622;BME280;56841;55.964;37.674;2023-03-20T15:21:13;99436.41;;;8.75;37.34
69622;BME280;56841;55.964;37.674;2023-03-20T15:23:43;99434.63;;;8.75;37.74
69622;BME280;56841;55.964;37.674;2023-03-20T15:26:11;99434.94;;;8.81;37.28
69622;BME280;56841;55.964;37.674;2023-03-20T15:28:38;99431.81;;;8.69;36.87